sensor_id;sensor_type;location;lat;lon;timestamp;temperature;humidity
15103;DHT22;7652;53.584;9.998;2022-09-09T00:02:18;14.60;99.90
15103;DHT22;7652;53.584;9.998;2022-09-09T00:05:29;14.60;99.90
15103;DHT22;7652;53.584;9.998;2022-09-09T00:08:41;14.60;99.90
15103;DHT22;7652;53.584;9.998;2022-09-09T00:11:49;14.70;99.90
15103;DHT22;7652;53.584;9.998;2022-09-09T00:14:56;14.70;99.90
15103;DHT22;7652;53.584;9.998;2022-09-09T00:18:07;14.80;99.90
15103;DHT22;7652;53.584;9.998;2022-09-09T00:21:17;14.80;99.90
15103;DHT22;7652;53.584;9.998;2022-09-09T00:24:26;14.90;99.90
15103;DHT22;7652;53.584;9.998;2022-09-09T00:27:32;14.90;99.90
15103;DHT22;7652;53.584;9.998;2022-09-09T00:30:40;15.00;99.90
15103;DHT22;7652;53.584;9.998;2022-09-09T00:33:44;15.00;99.90
15103;DHT22;7652;53.584;9.998;2022-09-09T00:36:50;15.00;99.90
15103;DHT22;7652;53.584;9.998;2022-09-09T00:39:59;15.10;99.90
15103;DHT22;7652;53.584;9.998;2022-09-09T00:43:18;15.20;99.90
15103;DHT22;7652;53.584;9.998;2022-09-09T00:46:40;15.20;99.90
15103;DHT22;7652;53.584;9.998;2022-09-09T00:49:56;15.30;99.90
15103;DHT22;7652;53.584;9.998;2022-09-09T00:53:22;15.30;99.90
15103;DHT22;7652;53.584;9.998;2022-09-09T00:56:36;15.30;99.90
15103;DHT22;7652;53.584;9.998;2022-09-09T00:59:47;15.40;99.90
15103;DHT22;7652;53.584;9.998;2022-09-09T01:03:17;15.40;99.90
15103;DHT22;7652;53.584;9.998;2022-09-09T01:06:28;15.40;99.90
15103;DHT22;7652;53.584;9.998;2022-09-09T01:09:38;15.40;99.90
15103;DHT22;7652;53.584;9.998;2022-09-09T01:12:47;15.40;99.90
15103;DHT22;7652;53.584;9.998;2022-09-09T01:15:52;15.40;99.90
15103;DHT22;7652;53.584;9.998;2022-09-09T01:19:03;15.40;99.90
15103;DHT22;7652;53.584;9.998;2022-09-09T01:22:15;15.30;99.90
15103;DHT22;7652;53.584;9.998;2022-09-09T01:28:50;15.20;99.90
15103;DHT22;7652;53.584;9.998;2022-09-09T01:31:55;15.30;99.90
15103;DHT22;7652;53.584;9.998;2022-09-09T01:34:59;15.30;99.90
15103;DHT22;7652;53.584;9.998;2022-09-09T01:38:02;15.30;99.90
15103;DHT22;7652;53.584;9.998;2022-09-09T01:41:05;15.30;99.90
15103;DHT22;7652;53.584;9.998;2022-09-09T01:44:10;15.30;99.90
15103;DHT22;7652;53.584;9.998;2022-09-09T01:47:15;15.30;99.90
15103;DHT22;7652;53.584;9.998;2022-09-09T01:50:20;15.30;99.90
15103;DHT22;7652;53.584;9.998;2022-09-09T01:53:24;15.30;99.90
15103;DHT22;7652;53.584;9.998;2022-09-09T01:56:36;15.30;99.90
15103;DHT22;7652;53.584;9.998;2022-09-09T01:59:51;15.20;99.90
15103;DHT22;7652;53.584;9.998;2022-09-09T02:03:04;15.10;99.90
15103;DHT22;7652;53.584;9.998;2022-09-09T02:06:18;15.10;99.90
15103;DHT22;7652;53.584;9.998;2022-09-09T02:09:29;15.00;99.90
15103;DHT22;7652;53.584;9.998;2022-09-09T02:12:33;15.00;99.90
15103;DHT22;7652;53.584;9.998;2022-09-09T02:15:42;15.00;99.90
15103;DHT22;7652;53.584;9.998;2022-09-09T02:18:49;15.00;99.90
15103;DHT22;7652;53.584;9.998;2022-09-09T02:21:55;15.00;99.90
15103;DHT22;7652;53.584;9.998;2022-09-09T02:25:00;15.00;99.90
15103;DHT22;7652;53.584;9.998;2022-09-09T02:28:04;14.90;99.90
15103;DHT22;7652;53.584;9.998;2022-09-09T02:31:10;14.90;99.90
15103;DHT22;7652;53.584;9.998;2022-09-09T02:34:15;14.90;99.90
15103;DHT22;7652;53.584;9.998;2022-09-09T02:37:22;14.80;99.90
15103;DHT22;7652;53.584;9.998;2022-09-09T02:40:26;14.80;99.90
15103;DHT22;7652;53.584;9.998;2022-09-09T02:43:31;14.90;99.90
15103;DHT22;7652;53.584;9.998;2022-09-09T02:46:50;14.90;99.90
15103;DHT22;7652;53.584;9.998;2022-09-09T02:50:04;14.90;99.90
15103;DHT22;7652;53.584;9.998;2022-09-09T02:53:15;14.90;99.90
15103;DHT22;7652;53.584;9.998;2022-09-09T02:56:22;14.80;99.90
15103;DHT22;7652;53.584;9.998;2022-09-09T02:59:26;14.80;99.90
15103;DHT22;7652;53.584;9.998;2022-09-09T03:02:30;14.80;99.90
15103;DHT22;7652;53.584;9.998;2022-09-09T03:05:34;14.80;99.90
15103;DHT22;7652;53.584;9.998;2022-09-09T03:08:38;14.80;99.90
15103;DHT22;7652;53.584;9.998;2022-09-09T03:11:42;14.90;99.90
15103;DHT22;7652;53.584;9.998;2022-09-09T03:14:45;14.90;99.90
15103;DHT22;7652;53.584;9.998;2022-09-09T03:17:50;14.90;99.90
15103;DHT22;7652;53.584;9.998;2022-09-09T03:20:53;14.90;99.90
15103;DHT22;7652;53.584;9.998;2022-09-09T03:23:56;15.00;99.90
15103;DHT22;7652;53.584;9.998;2022-09-09T03:27:00;14.90;99.90
15103;DHT22;7652;53.584;9.998;2022-09-09T03:30:03;14.90;99.90
15103;DHT22;7652;53.584;9.998;2022-09-09T03:33:09;14.90;99.90
15103;DHT22;7652;53.584;9.998;2022-09-09T03:36:12;14.80;99.90
15103;DHT22;7652;53.584;9.998;2022-09-09T03:39:15;14.80;99.90
15103;DHT22;7652;53.584;9.998;2022-09-09T03:42:18;14.70;99.90
15103;DHT22;7652;53.584;9.998;2022-09-09T03:45:21;14.70;99.90
15103;DHT22;7652;53.584;9.998;2022-09-09T03:48:26;14.60;99.90
15103;DHT22;7652;53.584;9.998;2022-09-09T03:51:30;14.70;99.90
15103;DHT22;7652;53.584;9.998;2022-09-09T03:54:33;14.70;99.90
15103;DHT22;7652;53.584;9.998;2022-09-09T03:57:37;14.60;99.90
15103;DHT22;7652;53.584;9.998;2022-09-09T04:00:41;14.60;99.90
15103;DHT22;7652;53.584;9.998;2022-09-09T04:03:48;14.60;99.90
15103;DHT22;7652;53.584;9.998;2022-09-09T04:06:52;14.60;99.90
15103;DHT22;7652;53.584;9.998;2022-09-09T04:09:55;14.50;99.90
15103;DHT22;7652;53.584;9.998;2022-09-09T04:12:58;14.60;99.90
15103;DHT22;7652;53.584;9.998;2022-09-09T04:16:03;14.50;99.90
15103;DHT22;7652;53.584;9.998;2022-09-09T04:19:07;14.50;99.90
15103;DHT22;7652;53.584;9.998;2022-09-09T04:22:10;14.50;99.90
15103;DHT22;7652;53.584;9.998;2022-09-09T04:25:13;14.50;99.90
15103;DHT22;7652;53.584;9.998;2022-09-09T04:28:17;14.50;99.90
15103;DHT22;7652;53.584;9.998;2022-09-09T04:31:22;14.50;99.90
15103;DHT22;7652;53.584;9.998;2022-09-09T04:34:27;14.50;99.90
15103;DHT22;7652;53.584;9.998;2022-09-09T04:37:30;14.60;99.90
15103;DHT22;7652;53.584;9.998;2022-09-09T04:40:33;14.60;99.90
15103;DHT22;7652;53.584;9.998;2022-09-09T04:43:36;14.60;99.90
15103;DHT22;7652;53.584;9.998;2022-09-09T04:46:39;14.60;99.90
15103;DHT22;7652;53.584;9.998;2022-09-09T04:49:44;14.60;99.90
15103;DHT22;7652;53.584;9.998;2022-09-09T04:52:47;14.60;99.90
15103;DHT22;7652;53.584;9.998;2022-09-09T04:55:50;14.70;99.90
15103;DHT22;7652;53.584;9.998;2022-09-09T04:58:53;14.70;99.90
15103;DHT22;7652;53.584;9.998;2022-09-09T05:01:57;14.70;99.90
15103;DHT22;7652;53.584;9.998;2022-09-09T05:05:04;14.80;99.90
15103;DHT22;7652;53.584;9.998;2022-09-09T05:08:08;14.80;99.90
15103;DHT22;7652;53.584;9.998;2022-09-09T05:11:16;14.80;99.90
15103;DHT22;7652;53.584;9.998;2022-09-09T05:14:19;14.70;99.90
15103;DHT22;7652;53.584;9.998;2022-09-09T05:17:22;14.70;99.90
15103;DHT22;7652;53.584;9.998;2022-09-09T05:20:26;14.80;99.90
15103;DHT22;7652;53.584;9.998;2022-09-09T05:23:30;14.80;99.90
15103;DHT22;7652;53.584;9.998;2022-09-09T05:26:33;14.70;99.90
15103;DHT22;7652;53.584;9.998;2022-09-09T05:29:36;14.70;99.90
15103;DHT22;7652;53.584;9.998;2022-09-09T05:32:39;14.60;99.90
15103;DHT22;7652;53.584;9.998;2022-09-09T05:35:44;14.70;99.90
15103;DHT22;7652;53.584;9.998;2022-09-09T05:38:47;14.70;99.90
15103;DHT22;7652;53.584;9.998;2022-09-09T05:41:50;14.80;99.90
15103;DHT22;7652;53.584;9.998;2022-09-09T05:44:53;14.80;99.90
15103;DHT22;7652;53.584;9.998;2022-09-09T05:47:57;14.80;99.90
15103;DHT22;7652;53.584;9.998;2022-09-09T05:51:04;15.00;99.90
15103;DHT22;7652;53.584;9.998;2022-09-09T05:54:08;14.90;99.90
15103;DHT22;7652;53.584;9.998;2022-09-09T05:57:11;14.90;99.90
15103;DHT22;7652;53.584;9.998;2022-09-09T06:00:15;15.00;99.90
15103;DHT22;7652;53.584;9.998;2022-09-09T06:03:18;15.00;99.90
15103;DHT22;7652;53.584;9.998;2022-09-09T06:06:30;15.10;99.90
15103;DHT22;7652;53.584;9.998;2022-09-09T06:09:33;15.20;99.90
15103;DHT22;7652;53.584;9.998;2022-09-09T06:12:36;15.30;99.90
15103;DHT22;7652;53.584;9.998;2022-09-09T06:15:49;15.30;99.90
15103;DHT22;7652;53.584;9.998;2022-09-09T06:18:53;15.40;99.90
15103;DHT22;7652;53.584;9.998;2022-09-09T06:21:59;15.50;99.90
15103;DHT22;7652;53.584;9.998;2022-09-09T06:25:02;15.50;99.90
15103;DHT22;7652;53.584;9.998;2022-09-09T06:28:05;15.50;99.90
15103;DHT22;7652;53.584;9.998;2022-09-09T06:31:10;15.50;99.90
15103;DHT22;7652;53.584;9.998;2022-09-09T06:34:14;15.50;99.90
15103;DHT22;7652;53.584;9.998;2022-09-09T06:37:18;15.40;99.90
15103;DHT22;7652;53.584;9.998;2022-09-09T06:40:22;15.40;99.90
15103;DHT22;7652;53.584;9.998;2022-09-09T06:43:25;15.40;99.90
15103;DHT22;7652;53.584;9.998;2022-09-09T06:46:29;15.30;99.90
15103;DHT22;7652;53.584;9.998;2022-09-09T06:49:34;15.30;99.90
15103;DHT22;7652;53.584;9.998;2022-09-09T06:52:39;15.30;99.90
15103;DHT22;7652;53.584;9.998;2022-09-09T06:55:42;15.40;99.90
15103;DHT22;7652;53.584;9.998;2022-09-09T06:58:46;15.50;99.90
15103;DHT22;7652;53.584;9.998;2022-09-09T07:01:50;15.50;99.90
15103;DHT22;7652;53.584;9.998;2022-09-09T07:04:57;15.60;99.90
15103;DHT22;7652;53.584;9.998;2022-09-09T07:08:02;15.60;99.90
15103;DHT22;7652;53.584;9.998;2022-09-09T07:11:07;15.70;99.90
15103;DHT22;7652;53.584;9.998;2022-09-09T07:14:13;15.80;99.90
15103;DHT22;7652;53.584;9.998;2022-09-09T07:17:17;15.90;99.90
15103;DHT22;7652;53.584;9.998;2022-09-09T07:20:20;16.10;99.90
15103;DHT22;7652;53.584;9.998;2022-09-09T07:23:24;16.20;99.90
15103;DHT22;7652;53.584;9.998;2022-09-09T07:26:29;16.30;99.90
15103;DHT22;7652;53.584;9.998;2022-09-09T07:29:32;16.40;99.90
15103;DHT22;7652;53.584;9.998;2022-09-09T07:32:35;16.30;99.90
15103;DHT22;7652;53.584;9.998;2022-09-09T07:35:38;16.40;99.90
15103;DHT22;7652;53.584;9.998;2022-09-09T07:38:45;16.50;99.90
15103;DHT22;7652;53.584;9.998;2022-09-09T07:41:48;16.50;99.90
15103;DHT22;7652;53.584;9.998;2022-09-09T07:44:52;16.60;99.90
15103;DHT22;7652;53.584;9.998;2022-09-09T07:47:56;16.90;99.90
15103;DHT22;7652;53.584;9.998;2022-09-09T07:51:05;17.20;99.90
15103;DHT22;7652;53.584;9.998;2022-09-09T07:54:12;17.40;99.90
15103;DHT22;7652;53.584;9.998;2022-09-09T07:57:15;17.40;99.90
15103;DHT22;7652;53.584;9.998;2022-09-09T08:00:20;17.30;99.90
15103;DHT22;7652;53.584;9.998;2022-09-09T08:03:24;17.10;99.90
15103;DHT22;7652;53.584;9.998;2022-09-09T08:06:27;17.10;99.90
15103;DHT22;7652;53.584;9.998;2022-09-09T08:09:32;17.20;99.90
15103;DHT22;7652;53.584;9.998;2022-09-09T08:12:35;17.30;99.90
15103;DHT22;7652;53.584;9.998;2022-09-09T08:15:38;17.30;99.90
15103;DHT22;7652;53.584;9.998;2022-09-09T08:18:41;17.40;99.90
15103;DHT22;7652;53.584;9.998;2022-09-09T08:21:45;17.50;99.90
15103;DHT22;7652;53.584;9.998;2022-09-09T08:24:49;17.60;99.90
15103;DHT22;7652;53.584;9.998;2022-09-09T08:27:53;17.70;99.90
15103;DHT22;7652;53.584;9.998;2022-09-09T08:30:56;17.90;99.90
15103;DHT22;7652;53.584;9.998;2022-09-09T08:34:07;18.10;99.90
15103;DHT22;7652;53.584;9.998;2022-09-09T08:37:10;18.10;99.90
15103;DHT22;7652;53.584;9.998;2022-09-09T08:40:21;18.10;99.90
15103;DHT22;7652;53.584;9.998;2022-09-09T08:43:26;18.00;99.90
15103;DHT22;7652;53.584;9.998;2022-09-09T08:46:36;18.00;99.90
15103;DHT22;7652;53.584;9.998;2022-09-09T08:49:57;18.10;99.90
15103;DHT22;7652;53.584;9.998;2022-09-09T08:53:03;18.10;99.90
15103;DHT22;7652;53.584;9.998;2022-09-09T08:56:13;18.10;99.90
15103;DHT22;7652;53.584;9.998;2022-09-09T08:59:18;18.10;99.90
15103;DHT22;7652;53.584;9.998;2022-09-09T09:02:25;18.20;99.90
15103;DHT22;7652;53.584;9.998;2022-09-09T09:05:35;18.30;99.90
15103;DHT22;7652;53.584;9.998;2022-09-09T09:08:45;18.40;99.90
15103;DHT22;7652;53.584;9.998;2022-09-09T09:12:10;18.60;99.90
15103;DHT22;7652;53.584;9.998;2022-09-09T09:15:18;18.50;99.90
15103;DHT22;7652;53.584;9.998;2022-09-09T09:18:23;18.50;99.90
15103;DHT22;7652;53.584;9.998;2022-09-09T09:21:32;18.60;99.90
15103;DHT22;7652;53.584;9.998;2022-09-09T09:24:43;18.70;99.90
15103;DHT22;7652;53.584;9.998;2022-09-09T09:27:57;18.70;99.90
15103;DHT22;7652;53.584;9.998;2022-09-09T09:31:04;18.90;99.90
15103;DHT22;7652;53.584;9.998;2022-09-09T09:34:09;18.90;99.90
15103;DHT22;7652;53.584;9.998;2022-09-09T09:37:16;19.20;99.90
15103;DHT22;7652;53.584;9.998;2022-09-09T09:40:22;19.30;99.90
15103;DHT22;7652;53.584;9.998;2022-09-09T09:43:29;19.40;99.90
15103;DHT22;7652;53.584;9.998;2022-09-09T09:46:33;19.40;99.90
15103;DHT22;7652;53.584;9.998;2022-09-09T09:49:36;19.40;99.90
15103;DHT22;7652;53.584;9.998;2022-09-09T09:52:41;19.50;99.90
15103;DHT22;7652;53.584;9.998;2022-09-09T09:55:52;19.60;99.90
15103;DHT22;7652;53.584;9.998;2022-09-09T09:58:57;19.60;99.90
15103;DHT22;7652;53.584;9.998;2022-09-09T10:02:18;19.60;99.90
15103;DHT22;7652;53.584;9.998;2022-09-09T10:05:23;19.80;99.90
15103;DHT22;7652;53.584;9.998;2022-09-09T10:08:28;19.80;99.90
15103;DHT22;7652;53.584;9.998;2022-09-09T10:11:43;19.80;99.90
15103;DHT22;7652;53.584;9.998;2022-09-09T10:14:56;19.90;99.90
15103;DHT22;7652;53.584;9.998;2022-09-09T10:18:12;19.90;99.90
15103;DHT22;7652;53.584;9.998;2022-09-09T10:25:23;20.40;99.90
15103;DHT22;7652;53.584;9.998;2022-09-09T10:32:10;20.70;99.90
15103;DHT22;7652;53.584;9.998;2022-09-09T10:35:29;20.80;99.90
15103;DHT22;7652;53.584;9.998;2022-09-09T10:38:40;20.90;99.90
15103;DHT22;7652;53.584;9.998;2022-09-09T10:41:51;20.90;99.90
15103;DHT22;7652;53.584;9.998;2022-09-09T10:45:07;20.90;99.90
15103;DHT22;7652;53.584;9.998;2022-09-09T10:48:30;21.00;99.90
15103;DHT22;7652;53.584;9.998;2022-09-09T10:51:40;21.40;99.90
15103;DHT22;7652;53.584;9.998;2022-09-09T10:54:55;21.70;99.90
15103;DHT22;7652;53.584;9.998;2022-09-09T10:58:02;21.90;99.90
15103;DHT22;7652;53.584;9.998;2022-09-09T11:01:12;21.80;99.90
15103;DHT22;7652;53.584;9.998;2022-09-09T11:04:22;21.60;99.90
15103;DHT22;7652;53.584;9.998;2022-09-09T11:07:32;21.60;99.90
15103;DHT22;7652;53.584;9.998;2022-09-09T11:10:40;21.60;99.90
15103;DHT22;7652;53.584;9.998;2022-09-09T11:13:47;21.40;99.90
15103;DHT22;7652;53.584;9.998;2022-09-09T11:16:57;21.40;99.90
15103;DHT22;7652;53.584;9.998;2022-09-09T11:20:05;21.50;99.90
15103;DHT22;7652;53.584;9.998;2022-09-09T11:23:12;21.80;99.90
15103;DHT22;7652;53.584;9.998;2022-09-09T11:26:24;22.40;99.90
15103;DHT22;7652;53.584;9.998;2022-09-09T11:29:58;22.70;99.90
15103;DHT22;7652;53.584;9.998;2022-09-09T11:33:19;22.80;99.90
15103;DHT22;7652;53.584;9.998;2022-09-09T11:36:39;23.10;99.90
15103;DHT22;7652;53.584;9.998;2022-09-09T11:40:09;23.00;99.90
15103;DHT22;7652;53.584;9.998;2022-09-09T11:43:19;23.00;99.90
15103;DHT22;7652;53.584;9.998;2022-09-09T11:46:33;22.70;99.90
15103;DHT22;7652;53.584;9.998;2022-09-09T11:49:40;22.30;99.90
15103;DHT22;7652;53.584;9.998;2022-09-09T11:52:46;22.20;99.90
15103;DHT22;7652;53.584;9.998;2022-09-09T11:56:10;22.00;99.90
15103;DHT22;7652;53.584;9.998;2022-09-09T11:59:20;21.80;99.90
15103;DHT22;7652;53.584;9.998;2022-09-09T12:02:25;21.60;99.90
15103;DHT22;7652;53.584;9.998;2022-09-09T12:05:36;21.20;99.90
15103;DHT22;7652;53.584;9.998;2022-09-09T12:08:44;21.40;99.90
15103;DHT22;7652;53.584;9.998;2022-09-09T12:11:48;22.00;99.90
15103;DHT22;7652;53.584;9.998;2022-09-09T12:14:58;22.10;99.90
15103;DHT22;7652;53.584;9.998;2022-09-09T12:18:01;22.00;99.90
15103;DHT22;7652;53.584;9.998;2022-09-09T12:21:10;21.70;99.90
15103;DHT22;7652;53.584;9.998;2022-09-09T12:24:23;21.50;99.90
15103;DHT22;7652;53.584;9.998;2022-09-09T12:27:31;21.40;99.90
15103;DHT22;7652;53.584;9.998;2022-09-09T12:30:42;21.30;99.90
15103;DHT22;7652;53.584;9.998;2022-09-09T12:33:50;21.30;99.90
15103;DHT22;7652;53.584;9.998;2022-09-09T12:36:58;21.30;99.90
15103;DHT22;7652;53.584;9.998;2022-09-09T12:40:06;21.80;99.90
15103;DHT22;7652;53.584;9.998;2022-09-09T12:43:21;22.90;99.90
15103;DHT22;7652;53.584;9.998;2022-09-09T12:46:31;23.20;99.90
15103;DHT22;7652;53.584;9.998;2022-09-09T12:49:37;23.00;99.90
15103;DHT22;7652;53.584;9.998;2022-09-09T12:52:42;22.70;99.90
15103;DHT22;7652;53.584;9.998;2022-09-09T12:55:52;22.60;99.90
15103;DHT22;7652;53.584;9.998;2022-09-09T12:58:56;22.40;99.90
15103;DHT22;7652;53.584;9.998;2022-09-09T13:02:00;22.10;99.90
15103;DHT22;7652;53.584;9.998;2022-09-09T13:05:14;21.70;99.90
15103;DHT22;7652;53.584;9.998;2022-09-09T13:08:18;21.50;99.90
15103;DHT22;7652;53.584;9.998;2022-09-09T13:11:26;21.20;99.90
15103;DHT22;7652;53.584;9.998;2022-09-09T13:14:33;21.00;99.90
15103;DHT22;7652;53.584;9.998;2022-09-09T13:17:39;20.80;99.90
15103;DHT22;7652;53.584;9.998;2022-09-09T13:20:46;20.60;99.90
15103;DHT22;7652;53.584;9.998;2022-09-09T13:23:50;20.40;99.90
15103;DHT22;7652;53.584;9.998;2022-09-09T13:26:56;20.30;99.90
15103;DHT22;7652;53.584;9.998;2022-09-09T13:30:00;20.10;99.90
15103;DHT22;7652;53.584;9.998;2022-09-09T13:33:18;20.00;99.90
15103;DHT22;7652;53.584;9.998;2022-09-09T13:36:30;20.00;99.90
15103;DHT22;7652;53.584;9.998;2022-09-09T13:39:34;20.00;99.90
15103;DHT22;7652;53.584;9.998;2022-09-09T13:42:41;19.50;99.90
15103;DHT22;7652;53.584;9.998;2022-09-09T13:45:52;18.80;99.90
15103;DHT22;7652;53.584;9.998;2022-09-09T13:48:57;18.40;99.90
15103;DHT22;7652;53.584;9.998;2022-09-09T13:52:08;18.10;99.90
15103;DHT22;7652;53.584;9.998;2022-09-09T13:55:11;17.90;99.90
15103;DHT22;7652;53.584;9.998;2022-09-09T13:58:16;17.70;99.90
15103;DHT22;7652;53.584;9.998;2022-09-09T14:01:20;17.50;99.90
15103;DHT22;7652;53.584;9.998;2022-09-09T14:04:30;17.40;99.90
15103;DHT22;7652;53.584;9.998;2022-09-09T14:07:33;17.40;99.90
15103;DHT22;7652;53.584;9.998;2022-09-09T14:10:36;17.40;99.90
15103;DHT22;7652;53.584;9.998;2022-09-09T14:13:40;17.40;99.90
15103;DHT22;7652;53.584;9.998;2022-09-09T14:16:43;17.50;99.90
15103;DHT22;7652;53.584;9.998;2022-09-09T14:19:47;17.40;99.90
15103;DHT22;7652;53.584;9.998;2022-09-09T14:22:50;17.40;99.90
15103;DHT22;7652;53.584;9.998;2022-09-09T14:25:53;17.50;99.90
15103;DHT22;7652;53.584;9.998;2022-09-09T14:28:58;17.50;99.90
15103;DHT22;7652;53.584;9.998;2022-09-09T14:32:02;17.60;99.90
15103;DHT22;7652;53.584;9.998;2022-09-09T14:35:11;17.70;99.90
15103;DHT22;7652;53.584;9.998;2022-09-09T14:38:14;17.70;99.90
15103;DHT22;7652;53.584;9.998;2022-09-09T14:41:20;17.70;99.90
15103;DHT22;7652;53.584;9.998;2022-09-09T14:44:25;17.30;99.90
15103;DHT22;7652;53.584;9.998;2022-09-09T14:47:28;17.10;99.90
15103;DHT22;7652;53.584;9.998;2022-09-09T14:50:32;17.10;99.90
15103;DHT22;7652;53.584;9.998;2022-09-09T14:53:36;17.10;99.90
15103;DHT22;7652;53.584;9.998;2022-09-09T14:56:39;17.10;99.90
15103;DHT22;7652;53.584;9.998;2022-09-09T14:59:44;17.10;99.90
15103;DHT22;7652;53.584;9.998;2022-09-09T15:02:47;17.10;99.90
15103;DHT22;7652;53.584;9.998;2022-09-09T15:05:50;17.10;99.90
15103;DHT22;7652;53.584;9.998;2022-09-09T15:08:53;17.20;99.90
15103;DHT22;7652;53.584;9.998;2022-09-09T15:11:59;17.10;99.90
15103;DHT22;7652;53.584;9.998;2022-09-09T15:15:05;17.10;99.90
15103;DHT22;7652;53.584;9.998;2022-09-09T15:18:08;17.10;99.90
15103;DHT22;7652;53.584;9.998;2022-09-09T15:21:13;17.10;99.90
15103;DHT22;7652;53.584;9.998;2022-09-09T15:24:17;17.20;99.90
15103;DHT22;7652;53.584;9.998;2022-09-09T15:27:20;17.20;99.90
15103;DHT22;7652;53.584;9.998;2022-09-09T15:30:26;17.20;99.90
15103;DHT22;7652;53.584;9.998;2022-09-09T15:33:29;17.20;99.90
15103;DHT22;7652;53.584;9.998;2022-09-09T15:36:33;17.30;99.90
15103;DHT22;7652;53.584;9.998;2022-09-09T15:39:36;17.30;99.90
15103;DHT22;7652;53.584;9.998;2022-09-09T15:42:40;17.40;99.90
15103;DHT22;7652;53.584;9.998;2022-09-09T15:45:46;17.40;99.90
15103;DHT22;7652;53.584;9.998;2022-09-09T15:48:49;17.50;99.90
15103;DHT22;7652;53.584;9.998;2022-09-09T15:51:57;17.50;99.90
15103;DHT22;7652;53.584;9.998;2022-09-09T15:55:00;17.30;99.90
15103;DHT22;7652;53.584;9.998;2022-09-09T15:58:03;17.30;99.90
15103;DHT22;7652;53.584;9.998;2022-09-09T16:01:09;17.30;99.90
15103;DHT22;7652;53.584;9.998;2022-09-09T16:04:13;17.40;99.90
15103;DHT22;7652;53.584;9.998;2022-09-09T16:07:17;17.40;99.90
15103;DHT22;7652;53.584;9.998;2022-09-09T16:10:21;17.40;99.90
15103;DHT22;7652;53.584;9.998;2022-09-09T16:13:24;17.50;99.90
15103;DHT22;7652;53.584;9.998;2022-09-09T16:16:29;17.40;99.90
15103;DHT22;7652;53.584;9.998;2022-09-09T16:19:33;17.40;99.90
15103;DHT22;7652;53.584;9.998;2022-09-09T16:22:37;17.50;99.90
15103;DHT22;7652;53.584;9.998;2022-09-09T16:25:40;17.60;99.90
15103;DHT22;7652;53.584;9.998;2022-09-09T16:28:43;17.60;99.90
15103;DHT22;7652;53.584;9.998;2022-09-09T16:31:49;17.60;99.90
15103;DHT22;7652;53.584;9.998;2022-09-09T16:34:53;17.70;99.90
15103;DHT22;7652;53.584;9.998;2022-09-09T16:37:56;17.70;99.90
15103;DHT22;7652;53.584;9.998;2022-09-09T16:40:59;17.70;99.90
15103;DHT22;7652;53.584;9.998;2022-09-09T16:44:04;17.60;99.90
15103;DHT22;7652;53.584;9.998;2022-09-09T16:47:08;17.60;99.90
15103;DHT22;7652;53.584;9.998;2022-09-09T16:50:12;17.70;99.90
15103;DHT22;7652;53.584;9.998;2022-09-09T16:53:15;17.70;99.90
15103;DHT22;7652;53.584;9.998;2022-09-09T16:56:19;17.70;99.90
15103;DHT22;7652;53.584;9.998;2022-09-09T16:59:22;17.70;99.90
15103;DHT22;7652;53.584;9.998;2022-09-09T17:02:26;17.60;99.90
15103;DHT22;7652;53.584;9.998;2022-09-09T17:05:30;17.60;99.90
15103;DHT22;7652;53.584;9.998;2022-09-09T17:08:34;17.50;99.90
15103;DHT22;7652;53.584;9.998;2022-09-09T17:11:38;17.40;99.90
15103;DHT22;7652;53.584;9.998;2022-09-09T17:14:41;17.40;99.90
15103;DHT22;7652;53.584;9.998;2022-09-09T17:17:46;17.40;99.90
15103;DHT22;7652;53.584;9.998;2022-09-09T17:20:50;17.30;99.90
15103;DHT22;7652;53.584;9.998;2022-09-09T17:23:55;17.10;99.90
15103;DHT22;7652;53.584;9.998;2022-09-09T17:26:58;17.10;99.90
15103;DHT22;7652;53.584;9.998;2022-09-09T17:30:02;17.10;99.90
15103;DHT22;7652;53.584;9.998;2022-09-09T17:33:07;17.00;99.90
15103;DHT22;7652;53.584;9.998;2022-09-09T17:36:12;17.00;99.90
15103;DHT22;7652;53.584;9.998;2022-09-09T17:39:15;17.00;99.90
15103;DHT22;7652;53.584;9.998;2022-09-09T17:42:18;17.00;99.90
15103;DHT22;7652;53.584;9.998;2022-09-09T17:45:21;17.00;99.90
15103;DHT22;7652;53.584;9.998;2022-09-09T17:48:26;17.00;99.90
15103;DHT22;7652;53.584;9.998;2022-09-09T17:51:30;16.90;99.90
15103;DHT22;7652;53.584;9.998;2022-09-09T17:54:34;16.80;99.90
15103;DHT22;7652;53.584;9.998;2022-09-09T17:57:38;16.80;99.90
15103;DHT22;7652;53.584;9.998;2022-09-09T18:00:41;16.80;99.90
15103;DHT22;7652;53.584;9.998;2022-09-09T18:03:46;16.80;99.90
15103;DHT22;7652;53.584;9.998;2022-09-09T18:06:51;16.70;99.90
15103;DHT22;7652;53.584;9.998;2022-09-09T18:09:55;16.70;99.90
15103;DHT22;7652;53.584;9.998;2022-09-09T18:12:58;16.70;99.90
15103;DHT22;7652;53.584;9.998;2022-09-09T18:16:07;16.60;99.90
15103;DHT22;7652;53.584;9.998;2022-09-09T18:19:13;16.60;99.90
15103;DHT22;7652;53.584;9.998;2022-09-09T18:22:17;16.60;99.90
15103;DHT22;7652;53.584;9.998;2022-09-09T18:25:20;16.60;99.90
15103;DHT22;7652;53.584;9.998;2022-09-09T18:28:23;16.50;99.90
15103;DHT22;7652;53.584;9.998;2022-09-09T18:31:28;16.50;99.90
15103;DHT22;7652;53.584;9.998;2022-09-09T18:34:32;16.50;99.90
15103;DHT22;7652;53.584;9.998;2022-09-09T18:37:36;16.50;99.90
15103;DHT22;7652;53.584;9.998;2022-09-09T18:40:40;16.50;99.90
15103;DHT22;7652;53.584;9.998;2022-09-09T18:43:43;16.50;99.90
15103;DHT22;7652;53.584;9.998;2022-09-09T18:46:47;16.50;99.90
15103;DHT22;7652;53.584;9.998;2022-09-09T18:49:52;16.50;99.90
15103;DHT22;7652;53.584;9.998;2022-09-09T18:52:56;16.50;99.90
15103;DHT22;7652;53.584;9.998;2022-09-09T18:56:01;16.50;99.90
15103;DHT22;7652;53.584;9.998;2022-09-09T18:59:07;16.50;99.90
15103;DHT22;7652;53.584;9.998;2022-09-09T19:02:11;16.50;99.90
15103;DHT22;7652;53.584;9.998;2022-09-09T19:05:15;16.50;99.90
15103;DHT22;7652;53.584;9.998;2022-09-09T19:08:18;16.50;99.90
15103;DHT22;7652;53.584;9.998;2022-09-09T19:11:22;16.50;99.90
15103;DHT22;7652;53.584;9.998;2022-09-09T19:14:26;16.60;99.90
15103;DHT22;7652;53.584;9.998;2022-09-09T19:17:29;16.60;99.90
15103;DHT22;7652;53.584;9.998;2022-09-09T19:20:35;16.50;99.90
15103;DHT22;7652;53.584;9.998;2022-09-09T19:23:39;16.50;99.90
15103;DHT22;7652;53.584;9.998;2022-09-09T19:26:45;16.50;99.90
15103;DHT22;7652;53.584;9.998;2022-09-09T19:29:48;16.50;99.90
15103;DHT22;7652;53.584;9.998;2022-09-09T19:32:57;16.50;99.90
15103;DHT22;7652;53.584;9.998;2022-09-09T19:36:05;16.50;99.90
15103;DHT22;7652;53.584;9.998;2022-09-09T19:39:10;16.50;99.90
15103;DHT22;7652;53.584;9.998;2022-09-09T19:42:13;16.50;99.90
15103;DHT22;7652;53.584;9.998;2022-09-09T19:45:16;16.40;99.90
15103;DHT22;7652;53.584;9.998;2022-09-09T19:48:19;16.40;99.90
15103;DHT22;7652;53.584;9.998;2022-09-09T19:51:24;16.40;99.90
15103;DHT22;7652;53.584;9.998;2022-09-09T19:54:27;16.40;99.90
15103;DHT22;7652;53.584;9.998;2022-09-09T19:57:30;16.30;99.90
15103;DHT22;7652;53.584;9.998;2022-09-09T20:00:33;16.30;99.90
15103;DHT22;7652;53.584;9.998;2022-09-09T20:03:42;16.30;99.90
15103;DHT22;7652;53.584;9.998;2022-09-09T20:06:47;16.30;99.90